createdAt,value
2022-12-09T00:01:35.736Z,35.60
2022-12-09T00:06:56.099Z,35.60
2022-12-09T00:12:16.443Z,35.60
2022-12-09T00:17:36.896Z,35.60
2022-12-09T00:22:57.148Z,35.60
2022-12-09T00:28:17.268Z,35.60
2022-12-09T00:33:37.383Z,35.60
2022-12-09T00:38:57.858Z,35.60
2022-12-09T00:44:17.564Z,35.60
2022-12-09T00:49:37.839Z,35.60
2022-12-09T00:54:57.995Z,35.60
2022-12-09T01:00:18.329Z,35.60
2022-12-09T01:05:38.415Z,35.50
2022-12-09T01:10:58.895Z,35.50
2022-12-09T01:16:18.945Z,35.60
2022-12-09T01:21:38.944Z,35.60
2022-12-09T01:26:59.179Z,35.60
2022-12-09T01:32:19.323Z,35.60
2022-12-09T01:37:40.189Z,35.60
2022-12-09T01:43:00.715Z,35.50
2022-12-09T01:48:20.932Z,35.60
2022-12-09T01:53:40.942Z,35.60
2022-12-09T01:59:01.186Z,35.50
2022-12-09T02:04:21.320Z,35.60
2022-12-09T02:09:41.479Z,35.50
2022-12-09T02:15:01.625Z,35.50
2022-12-09T02:20:22.142Z,35.50
2022-12-09T02:25:42.082Z,35.60
2022-12-09T02:31:02.193Z,35.50
2022-12-09T02:36:22.292Z,35.60
2022-12-09T02:41:42.462Z,35.50
2022-12-09T02:47:02.557Z,35.50
2022-12-09T02:52:22.529Z,35.50
2022-12-09T02:57:42.657Z,35.40
2022-12-09T03:03:02.983Z,35.50
2022-12-09T03:08:23.076Z,35.40
2022-12-09T03:13:43.321Z,35.40
2022-12-09T03:19:03.667Z,35.40
2022-12-09T03:24:24.291Z,35.40
2022-12-09T03:29:44.518Z,35.40
2022-12-09T03:35:04.837Z,35.40
2022-12-09T03:40:25.677Z,35.40
2022-12-09T03:45:45.714Z,35.30
2022-12-09T03:51:06.306Z,35.30
2022-12-09T03:56:26.432Z,35.30
2022-12-09T04:01:46.567Z,35.40
2022-12-09T04:07:06.965Z,35.30
2022-12-09T04:12:27.040Z,35.30
2022-12-09T04:17:46.958Z,35.30
2022-12-09T04:23:07.210Z,35.40
2022-12-09T04:28:27.208Z,35.30
2022-12-09T04:33:47.316Z,35.40
2022-12-09T04:39:07.458Z,35.30
2022-12-09T04:44:27.910Z,35.40
2022-12-09T04:49:47.988Z,35.40
2022-12-09T04:55:08.342Z,35.40
2022-12-09T05:00:28.669Z,35.40
2022-12-09T05:05:48.845Z,35.40
2022-12-09T05:11:09.188Z,35.40
2022-12-09T05:16:29.620Z,35.40
2022-12-09T05:21:49.724Z,35.30
2022-12-09T05:27:09.849Z,35.30
2022-12-09T05:32:29.924Z,35.30
2022-12-09T05:37:50.189Z,35.40
2022-12-09T05:43:10.003Z,35.30
2022-12-09T05:48:30.366Z,35.30
2022-12-09T05:53:50.593Z,35.30
2022-12-09T05:59:10.902Z,35.30
2022-12-09T06:04:31.663Z,35.30
2022-12-09T06:09:51.873Z,35.40
2022-12-09T06:15:14.547Z,35.30
2022-12-09T06:20:39.295Z,35.40
2022-12-09T06:25:59.507Z,35.30
2022-12-09T06:31:19.860Z,35.30
2022-12-09T06:36:40.496Z,35.30
2022-12-09T06:42:00.720Z,35.30
2022-12-09T06:47:21.348Z,35.30
2022-12-09T06:52:41.493Z,35.30
2022-12-09T06:58:01.875Z,35.30
2022-12-09T07:03:22.537Z,35.30
2022-12-09T07:08:42.696Z,35.30
2022-12-09T07:14:02.986Z,35.40
2022-12-09T07:19:23.283Z,35.40
2022-12-09T07:24:43.935Z,35.30
2022-12-09T07:30:04.296Z,35.20
2022-12-09T07:35:24.964Z,35.20
2022-12-09T07:40:45.494Z,35.20
2022-12-09T07:46:05.864Z,35.20
2022-12-09T07:51:26.035Z,35.20
2022-12-09T07:56:46.274Z,35.30
2022-12-09T08:02:06.980Z,35.20
2022-12-09T08:07:27.713Z,35.30
2022-12-09T08:12:48.133Z,35.30
2022-12-09T08:18:08.590Z,35.30
2022-12-09T08:23:29.045Z,35.30
2022-12-09T08:28:49.531Z,35.30
2022-12-09T08:34:09.908Z,35.30
2022-12-09T08:39:30.388Z,35.30
2022-12-09T08:44:50.591Z,35.30
2022-12-09T08:50:11.516Z,35.20
2022-12-09T08:55:31.880Z,35.20
2022-12-09T09:00:52.396Z,35.20
2022-12-09T09:06:13.361Z,35.20
2022-12-09T09:11:33.747Z,35.20
2022-12-09T09:16:54.424Z,35.20
2022-12-09T09:22:14.494Z,35.20
2022-12-09T09:27:34.749Z,35.20
2022-12-09T09:32:55.144Z,35.20
2022-12-09T09:38:15.787Z,35.30
2022-12-09T09:43:35.625Z,35.20
2022-12-09T09:48:56.513Z,35.20
2022-12-09T09:54:17.400Z,35.20
2022-12-09T09:59:38.264Z,35.30
2022-12-09T10:04:58.518Z,35.20
2022-12-09T10:10:19.476Z,35.20
2022-12-09T10:15:40.903Z,35.20
2022-12-09T10:21:01.008Z,35.20
2022-12-09T10:26:21.893Z,35.20
2022-12-09T10:31:42.134Z,35.20
2022-12-09T10:37:02.401Z,35.30
2022-12-09T10:42:22.683Z,35.20
2022-12-09T10:47:42.927Z,35.20
2022-12-09T10:53:02.986Z,35.20
2022-12-09T10:58:23.134Z,35.20
2022-12-09T11:03:43.340Z,35.20
2022-12-09T11:09:04.109Z,35.20
2022-12-09T11:14:24.274Z,35.20
2022-12-09T11:19:45.277Z,35.20
2022-12-09T11:25:06.050Z,35.20
2022-12-09T11:30:27.131Z,35.20
2022-12-09T11:35:47.801Z,35.10
2022-12-09T11:41:07.824Z,35.10
2022-12-09T11:46:27.965Z,35.10
2022-12-09T11:51:48.076Z,35.10
2022-12-09T11:57:08.256Z,35.00
2022-12-09T12:02:28.460Z,35.00
2022-12-09T12:07:48.497Z,35.10
2022-12-09T12:13:08.547Z,35.00
2022-12-09T12:18:28.749Z,35.10
2022-12-09T12:23:50.345Z,35.00
2022-12-09T12:29:10.512Z,35.00
2022-12-09T12:34:35.750Z,35.00
2022-12-09T12:39:59.307Z,35.00
2022-12-09T12:45:19.430Z,35.00
2022-12-09T12:50:39.385Z,35.00
2022-12-09T12:55:59.568Z,35.00
2022-12-09T13:01:19.744Z,35.00
2022-12-09T13:06:39.839Z,35.00
2022-12-09T13:12:00.026Z,35.00
2022-12-09T13:17:20.234Z,35.00
2022-12-09T13:22:40.432Z,35.10
2022-12-09T13:28:00.614Z,35.10
2022-12-09T13:33:20.593Z,35.00
2022-12-09T13:38:40.628Z,35.00
2022-12-09T13:44:00.791Z,35.00
2022-12-09T13:49:20.945Z,35.00
2022-12-09T13:54:40.986Z,35.00
2022-12-09T14:00:01.071Z,35.00
2022-12-09T14:05:21.129Z,35.00
2022-12-09T14:10:41.245Z,35.00
2022-12-09T14:16:02.491Z,35.10
2022-12-09T14:21:22.407Z,35.00
2022-12-09T14:26:42.509Z,35.00
2022-12-09T14:32:02.672Z,35.00
2022-12-09T14:37:22.731Z,35.10
2022-12-09T14:42:42.823Z,35.00
2022-12-09T14:48:02.814Z,35.00
2022-12-09T14:53:23.036Z,35.00
2022-12-09T14:58:43.160Z,35.00
2022-12-09T15:04:03.400Z,35.10
2022-12-09T15:09:23.330Z,35.10
2022-12-09T15:14:43.563Z,35.00
2022-12-09T15:20:03.665Z,35.00
2022-12-09T15:25:23.881Z,35.00
2022-12-09T15:30:43.890Z,35.00
2022-12-09T15:36:04.347Z,35.00
2022-12-09T15:41:24.381Z,35.00
2022-12-09T15:46:44.632Z,35.00
2022-12-09T15:52:04.697Z,35.00
2022-12-09T15:57:24.834Z,35.00
2022-12-09T16:02:44.927Z,35.00
2022-12-09T16:08:05.006Z,35.00
2022-12-09T16:13:25.028Z,35.00
2022-12-09T16:18:45.358Z,35.00
2022-12-09T16:24:05.512Z,35.00
2022-12-09T16:29:25.596Z,35.00
2022-12-09T16:34:45.696Z,35.00
2022-12-09T16:40:05.902Z,35.00
2022-12-09T16:45:26.099Z,35.00
2022-12-09T16:50:46.220Z,35.00
2022-12-09T16:56:06.308Z,35.10
2022-12-09T17:01:26.545Z,35.10
2022-12-09T17:06:46.579Z,35.00
2022-12-09T17:12:06.752Z,35.00
2022-12-09T17:17:26.869Z,35.10
2022-12-09T17:22:46.995Z,35.00
2022-12-09T17:28:07.125Z,35.00
2022-12-09T17:33:27.307Z,35.00
2022-12-09T17:38:47.543Z,35.00
2022-12-09T17:44:07.741Z,35.00
2022-12-09T17:49:27.752Z,35.00
2022-12-09T17:54:47.948Z,35.00
2022-12-09T18:00:08.578Z,35.00
2022-12-09T18:05:28.780Z,35.00
2022-12-09T18:10:49.110Z,35.00
2022-12-09T18:16:09.216Z,35.00
2022-12-09T18:21:29.332Z,35.00
2022-12-09T18:26:49.435Z,35.00
2022-12-09T18:32:09.554Z,35.00
2022-12-09T18:37:29.541Z,35.00
2022-12-09T18:42:50.462Z,35.00
2022-12-09T18:48:10.642Z,35.00
2022-12-09T18:53:30.846Z,35.00
2022-12-09T18:59:05.826Z,35.00
2022-12-09T19:04:26.604Z,34.90
2022-12-09T19:09:46.807Z,34.90
2022-12-09T19:15:07.003Z,34.90
2022-12-09T19:20:27.221Z,34.90
2022-12-09T19:25:47.555Z,35.10
2022-12-09T19:31:07.638Z,35.00
2022-12-09T19:36:27.884Z,34.90
2022-12-09T19:41:48.070Z,34.90
2022-12-09T19:47:08.288Z,34.90
2022-12-09T19:52:28.446Z,34.90
2022-12-09T19:57:48.634Z,34.90
2022-12-09T20:03:08.784Z,34.90
2022-12-09T20:08:28.941Z,34.90
2022-12-09T20:13:49.133Z,35.00
2022-12-09T20:19:09.284Z,34.90
2022-12-09T20:24:29.274Z,34.90
2022-12-09T20:29:49.330Z,34.90
2022-12-09T20:35:09.541Z,34.90
2022-12-09T20:40:29.890Z,34.90
2022-12-09T20:45:49.944Z,34.90
2022-12-09T20:51:10.234Z,34.90
2022-12-09T20:56:30.365Z,34.90
2022-12-09T21:01:50.490Z,34.90
2022-12-09T21:07:10.583Z,34.80
2022-12-09T21:12:30.761Z,34.80
2022-12-09T21:17:50.905Z,34.90
2022-12-09T21:23:33.279Z,34.80
2022-12-09T21:28:50.883Z,34.80
2022-12-09T21:34:10.917Z,34.80
2022-12-09T21:39:31.069Z,34.80
2022-12-09T21:44:51.043Z,34.80
2022-12-09T21:50:11.190Z,34.80
2022-12-09T21:55:31.396Z,34.80
2022-12-09T22:00:51.672Z,34.80
2022-12-09T22:06:11.689Z,34.80
2022-12-09T22:11:31.771Z,34.80
2022-12-09T22:16:52.041Z,34.80
2022-12-09T22:22:12.085Z,34.80
2022-12-09T22:27:32.318Z,34.90
2022-12-09T22:32:52.418Z,34.90
2022-12-09T22:38:14.744Z,34.90
2022-12-09T22:43:38.001Z,34.90
2022-12-09T22:48:58.450Z,34.90
2022-12-09T22:54:18.756Z,35.00
2022-12-09T22:59:42.917Z,34.90
2022-12-09T23:05:03.076Z,34.90
2022-12-09T23:10:23.118Z,34.90
2022-12-09T23:15:43.352Z,34.90
2022-12-09T23:21:03.453Z,34.80
2022-12-09T23:26:23.622Z,34.80
2022-12-09T23:31:43.785Z,34.80
2022-12-09T23:37:04.095Z,34.90
2022-12-09T23:42:24.262Z,34.80
2022-12-09T23:47:44.400Z,34.80
2022-12-09T23:53:04.440Z,34.80
2022-12-09T23:58:24.621Z,34.80
